EPRA

Radom Military Air Base Airport

Poland
METAR EPRA 211730Z 17006KT CAVOK 20/13 Q1010
Observed Flight Rules
Sep-21 @ 17:30 UTC (10 hours ago) Visual Flight Rules
Wind Visibility Clouds
170° at 6 knots 10,000+ meters
Temperatures Readings
Current 20°C / 68°F
Dewpoint 13°C / 55°F
Humidity 64%
Altimeter 29.82" Hg
Pressure 1010 hPa
Elevation 178
METAR EPRA 211730Z 17006KT CAVOK 20/13 Q1010
Observed Flight Rules
Sep-21 @ 17:30 UTC
(10 hours ago)
VFR
Wind Visibility
170° at 6 knots 10,000+ meters
Clouds
Temperature Dewpoint
20°C / 68°F 13°C / 55°F
Humidity Altimeter Pressure
64% 29.82" Hg 1010 hPa